sensor_id;sensor_type;location;lat;lon;timestamp;temperature;humidity
24436;DHT22;12616;52.470;13.436;2023-12-14T00:00:39;4.60;67.30
24436;DHT22;12616;52.470;13.436;2023-12-14T00:03:05;4.40;99.90
24436;DHT22;12616;52.470;13.436;2023-12-14T00:05:32;4.70;99.90
24436;DHT22;12616;52.470;13.436;2023-12-14T00:08:02;4.60;75.80
24436;DHT22;12616;52.470;13.436;2023-12-14T00:10:29;4.50;47.50
24436;DHT22;12616;52.470;13.436;2023-12-14T00:12:55;4.50;51.10
24436;DHT22;12616;52.470;13.436;2023-12-14T00:15:22;4.50;49.20
24436;DHT22;12616;52.470;13.436;2023-12-14T00:17:49;4.50;39.20
24436;DHT22;12616;52.470;13.436;2023-12-14T00:20:16;4.80;99.90
24436;DHT22;12616;52.470;13.436;2023-12-14T00:22:43;4.60;50.00
24436;DHT22;12616;52.470;13.436;2023-12-14T00:25:11;4.50;50.60
24436;DHT22;12616;52.470;13.436;2023-12-14T00:27:38;4.50;48.30
24436;DHT22;12616;52.470;13.436;2023-12-14T00:30:06;4.40;99.90
24436;DHT22;12616;52.470;13.436;2023-12-14T00:32:32;4.40;37.10
24436;DHT22;12616;52.470;13.436;2023-12-14T00:34:59;4.50;50.70
24436;DHT22;12616;52.470;13.436;2023-12-14T00:37:26;4.50;45.50
24436;DHT22;12616;52.470;13.436;2023-12-14T00:39:53;4.40;40.60
24436;DHT22;12616;52.470;13.436;2023-12-14T00:42:21;4.40;37.80
24436;DHT22;12616;52.470;13.436;2023-12-14T00:44:48;4.30;40.10
24436;DHT22;12616;52.470;13.436;2023-12-14T00:47:15;4.40;47.20
24436;DHT22;12616;52.470;13.436;2023-12-14T00:49:42;4.30;30.70
24436;DHT22;12616;52.470;13.436;2023-12-14T00:52:09;4.20;25.60
24436;DHT22;12616;52.470;13.436;2023-12-14T00:54:35;4.30;35.80
24436;DHT22;12616;52.470;13.436;2023-12-14T00:57:02;4.20;23.80
24436;DHT22;12616;52.470;13.436;2023-12-14T00:59:31;4.20;27.10
24436;DHT22;12616;52.470;13.436;2023-12-14T01:01:57;4.20;22.60
24436;DHT22;12616;52.470;13.436;2023-12-14T01:04:24;4.10;17.40
24436;DHT22;12616;52.470;13.436;2023-12-14T01:06:51;4.10;21.80
24436;DHT22;12616;52.470;13.436;2023-12-14T01:09:18;4.10;15.90
24436;DHT22;12616;52.470;13.436;2023-12-14T01:11:45;4.10;16.10
24436;DHT22;12616;52.470;13.436;2023-12-14T01:14:11;4.10;14.20
24436;DHT22;12616;52.470;13.436;2023-12-14T01:16:40;4.10;10.90
24436;DHT22;12616;52.470;13.436;2023-12-14T01:19:07;4.00;7.20
24436;DHT22;12616;52.470;13.436;2023-12-14T01:21:34;4.10;1.00
24436;DHT22;12616;52.470;13.436;2023-12-14T01:24:00;4.00;1.00
24436;DHT22;12616;52.470;13.436;2023-12-14T01:26:27;4.00;1.00
24436;DHT22;12616;52.470;13.436;2023-12-14T01:28:54;4.00;1.00
24436;DHT22;12616;52.470;13.436;2023-12-14T01:31:21;4.00;1.00
24436;DHT22;12616;52.470;13.436;2023-12-14T01:33:51;4.00;1.00
24436;DHT22;12616;52.470;13.436;2023-12-14T01:36:20;4.10;1.00
24436;DHT22;12616;52.470;13.436;2023-12-14T01:38:47;4.10;1.00
24436;DHT22;12616;52.470;13.436;2023-12-14T01:41:14;4.20;1.00
24436;DHT22;12616;52.470;13.436;2023-12-14T01:43:41;4.10;1.00
24436;DHT22;12616;52.470;13.436;2023-12-14T01:46:08;4.10;1.00
24436;DHT22;12616;52.470;13.436;2023-12-14T01:48:35;4.10;14.10
24436;DHT22;12616;52.470;13.436;2023-12-14T01:51:04;4.10;1.00
24436;DHT22;12616;52.470;13.436;2023-12-14T01:53:31;4.10;1.00
24436;DHT22;12616;52.470;13.436;2023-12-14T01:55:57;4.00;1.00
24436;DHT22;12616;52.470;13.436;2023-12-14T01:58:24;4.10;1.00
24436;DHT22;12616;52.470;13.436;2023-12-14T02:00:55;4.10;1.00
24436;DHT22;12616;52.470;13.436;2023-12-14T02:03:25;4.10;1.00
24436;DHT22;12616;52.470;13.436;2023-12-14T02:05:51;4.00;1.00
24436;DHT22;12616;52.470;13.436;2023-12-14T02:08:19;4.00;1.00
24436;DHT22;12616;52.470;13.436;2023-12-14T02:10:46;4.10;1.00
24436;DHT22;12616;52.470;13.436;2023-12-14T02:13:13;4.00;1.00
24436;DHT22;12616;52.470;13.436;2023-12-14T02:15:40;4.00;1.00
24436;DHT22;12616;52.470;13.436;2023-12-14T02:18:07;4.00;1.00
24436;DHT22;12616;52.470;13.436;2023-12-14T02:20:34;3.90;1.00
24436;DHT22;12616;52.470;13.436;2023-12-14T02:23:02;3.90;1.00
24436;DHT22;12616;52.470;13.436;2023-12-14T02:25:29;4.00;1.00
24436;DHT22;12616;52.470;13.436;2023-12-14T02:27:55;3.90;1.00
24436;DHT22;12616;52.470;13.436;2023-12-14T02:30:22;4.30;1.00
24436;DHT22;12616;52.470;13.436;2023-12-14T02:32:49;4.00;1.00
24436;DHT22;12616;52.470;13.436;2023-12-14T02:35:16;3.90;1.00
24436;DHT22;12616;52.470;13.436;2023-12-14T02:37:44;3.90;1.00
24436;DHT22;12616;52.470;13.436;2023-12-14T02:40:12;4.00;1.00
24436;DHT22;12616;52.470;13.436;2023-12-14T02:42:39;3.80;1.00
24436;DHT22;12616;52.470;13.436;2023-12-14T02:45:07;3.80;1.00
24436;DHT22;12616;52.470;13.436;2023-12-14T02:47:34;3.90;1.00
24436;DHT22;12616;52.470;13.436;2023-12-14T02:50:01;4.20;1.00
24436;DHT22;12616;52.470;13.436;2023-12-14T02:52:28;3.80;1.00
24436;DHT22;12616;52.470;13.436;2023-12-14T02:54:55;3.80;1.00
24436;DHT22;12616;52.470;13.436;2023-12-14T02:57:23;3.80;1.00
24436;DHT22;12616;52.470;13.436;2023-12-14T02:59:50;3.70;1.00
24436;DHT22;12616;52.470;13.436;2023-12-14T03:02:17;3.70;1.00
24436;DHT22;12616;52.470;13.436;2023-12-14T03:04:44;3.80;1.00
24436;DHT22;12616;52.470;13.436;2023-12-14T03:07:11;3.60;1.00
24436;DHT22;12616;52.470;13.436;2023-12-14T03:09:39;3.70;1.00
24436;DHT22;12616;52.470;13.436;2023-12-14T03:12:09;3.50;1.00
24436;DHT22;12616;52.470;13.436;2023-12-14T03:14:37;4.20;1.00
24436;DHT22;12616;52.470;13.436;2023-12-14T03:17:04;3.70;1.00
24436;DHT22;12616;52.470;13.436;2023-12-14T03:19:32;3.60;1.00
24436;DHT22;12616;52.470;13.436;2023-12-14T03:21:59;3.60;1.00
24436;DHT22;12616;52.470;13.436;2023-12-14T03:24:26;3.70;1.00
24436;DHT22;12616;52.470;13.436;2023-12-14T03:26:52;3.60;1.00
24436;DHT22;12616;52.470;13.436;2023-12-14T03:29:19;3.60;1.00
24436;DHT22;12616;52.470;13.436;2023-12-14T03:31:48;3.60;1.00
24436;DHT22;12616;52.470;13.436;2023-12-14T03:34:15;3.60;1.00
24436;DHT22;12616;52.470;13.436;2023-12-14T03:36:42;3.60;1.00
24436;DHT22;12616;52.470;13.436;2023-12-14T03:39:08;3.60;1.00
24436;DHT22;12616;52.470;13.436;2023-12-14T03:41:35;3.60;1.00
24436;DHT22;12616;52.470;13.436;2023-12-14T03:44:02;3.70;1.00
24436;DHT22;12616;52.470;13.436;2023-12-14T03:46:29;3.60;1.00
24436;DHT22;12616;52.470;13.436;2023-12-14T03:48:57;3.60;1.00
24436;DHT22;12616;52.470;13.436;2023-12-14T03:51:24;3.80;1.00
24436;DHT22;12616;52.470;13.436;2023-12-14T03:53:51;3.60;1.00
24436;DHT22;12616;52.470;13.436;2023-12-14T03:56:18;3.60;1.00
24436;DHT22;12616;52.470;13.436;2023-12-14T03:58:44;3.60;1.00
24436;DHT22;12616;52.470;13.436;2023-12-14T04:01:16;3.80;1.00
24436;DHT22;12616;52.470;13.436;2023-12-14T04:03:43;3.60;1.00
24436;DHT22;12616;52.470;13.436;2023-12-14T04:06:12;3.60;1.00
24436;DHT22;12616;52.470;13.436;2023-12-14T04:08:39;3.60;1.00
24436;DHT22;12616;52.470;13.436;2023-12-14T04:11:06;3.60;1.00
24436;DHT22;12616;52.470;13.436;2023-12-14T04:13:33;3.60;1.00
24436;DHT22;12616;52.470;13.436;2023-12-14T04:16:01;3.60;1.00
24436;DHT22;12616;52.470;13.436;2023-12-14T04:18:28;3.60;1.00
24436;DHT22;12616;52.470;13.436;2023-12-14T04:20:55;3.60;1.00
24436;DHT22;12616;52.470;13.436;2023-12-14T04:23:23;3.60;1.00
24436;DHT22;12616;52.470;13.436;2023-12-14T04:25:50;3.60;1.00
24436;DHT22;12616;52.470;13.436;2023-12-14T04:28:16;3.60;1.00
24436;DHT22;12616;52.470;13.436;2023-12-14T04:30:43;3.60;1.00
24436;DHT22;12616;52.470;13.436;2023-12-14T04:33:10;3.30;1.00
24436;DHT22;12616;52.470;13.436;2023-12-14T04:35:37;3.60;1.00
24436;DHT22;12616;52.470;13.436;2023-12-14T04:38:03;3.60;1.00
24436;DHT22;12616;52.470;13.436;2023-12-14T04:40:32;3.90;1.00
24436;DHT22;12616;52.470;13.436;2023-12-14T04:42:59;3.70;1.00
24436;DHT22;12616;52.470;13.436;2023-12-14T04:45:26;3.60;1.00
24436;DHT22;12616;52.470;13.436;2023-12-14T04:47:52;4.40;1.00
24436;DHT22;12616;52.470;13.436;2023-12-14T04:50:19;3.30;1.00
24436;DHT22;12616;52.470;13.436;2023-12-14T04:52:46;3.60;1.00
24436;DHT22;12616;52.470;13.436;2023-12-14T04:55:13;3.60;1.00
24436;DHT22;12616;52.470;13.436;2023-12-14T04:57:41;3.60;1.00
24436;DHT22;12616;52.470;13.436;2023-12-14T05:00:09;3.40;1.00
24436;DHT22;12616;52.470;13.436;2023-12-14T05:02:36;3.60;1.00
24436;DHT22;12616;52.470;13.436;2023-12-14T05:05:03;3.70;1.00
24436;DHT22;12616;52.470;13.436;2023-12-14T05:07:30;3.70;1.00
24436;DHT22;12616;52.470;13.436;2023-12-14T05:09:57;3.60;1.00
24436;DHT22;12616;52.470;13.436;2023-12-14T05:12:24;3.60;1.00
24436;DHT22;12616;52.470;13.436;2023-12-14T05:14:53;3.60;1.00
24436;DHT22;12616;52.470;13.436;2023-12-14T05:17:20;3.60;1.00
24436;DHT22;12616;52.470;13.436;2023-12-14T05:19:47;3.60;1.00
24436;DHT22;12616;52.470;13.436;2023-12-14T05:22:14;3.80;1.00
24436;DHT22;12616;52.470;13.436;2023-12-14T05:24:40;3.70;1.00
24436;DHT22;12616;52.470;13.436;2023-12-14T05:27:07;3.70;1.00
24436;DHT22;12616;52.470;13.436;2023-12-14T05:29:34;3.70;1.00
24436;DHT22;12616;52.470;13.436;2023-12-14T05:32:02;3.80;1.00
24436;DHT22;12616;52.470;13.436;2023-12-14T05:34:29;3.70;1.00
24436;DHT22;12616;52.470;13.436;2023-12-14T05:36:56;3.60;1.00
24436;DHT22;12616;52.470;13.436;2023-12-14T05:39:23;3.60;1.00
24436;DHT22;12616;52.470;13.436;2023-12-14T05:41:49;3.70;1.00
24436;DHT22;12616;52.470;13.436;2023-12-14T05:44:16;3.70;1.00
24436;DHT22;12616;52.470;13.436;2023-12-14T05:46:43;3.70;1.00
24436;DHT22;12616;52.470;13.436;2023-12-14T05:49:11;3.70;1.00
24436;DHT22;12616;52.470;13.436;2023-12-14T05:51:38;3.80;1.00
24436;DHT22;12616;52.470;13.436;2023-12-14T05:54:05;3.70;1.00
24436;DHT22;12616;52.470;13.436;2023-12-14T05:56:32;3.80;1.00
24436;DHT22;12616;52.470;13.436;2023-12-14T05:58:59;3.50;1.00
24436;DHT22;12616;52.470;13.436;2023-12-14T06:01:26;3.70;1.00
24436;DHT22;12616;52.470;13.436;2023-12-14T06:03:52;3.70;1.00
24436;DHT22;12616;52.470;13.436;2023-12-14T06:06:20;3.70;1.00
24436;DHT22;12616;52.470;13.436;2023-12-14T06:08:48;3.70;1.00
24436;DHT22;12616;52.470;13.436;2023-12-14T06:11:15;3.70;1.00
24436;DHT22;12616;52.470;13.436;2023-12-14T06:13:42;3.70;1.00
24436;DHT22;12616;52.470;13.436;2023-12-14T06:16:08;3.70;1.00
24436;DHT22;12616;52.470;13.436;2023-12-14T06:18:39;3.80;1.00
24436;DHT22;12616;52.470;13.436;2023-12-14T06:21:07;3.70;1.00
24436;DHT22;12616;52.470;13.436;2023-12-14T06:23:35;3.70;1.00
24436;DHT22;12616;52.470;13.436;2023-12-14T06:26:02;3.80;1.00
24436;DHT22;12616;52.470;13.436;2023-12-14T06:28:29;3.70;1.00
24436;DHT22;12616;52.470;13.436;2023-12-14T06:30:57;3.70;1.00
24436;DHT22;12616;52.470;13.436;2023-12-14T06:33:23;3.70;1.00
24436;DHT22;12616;52.470;13.436;2023-12-14T06:35:50;3.70;1.00
24436;DHT22;12616;52.470;13.436;2023-12-14T06:38:19;3.70;1.00
24436;DHT22;12616;52.470;13.436;2023-12-14T06:40:47;3.70;1.00
24436;DHT22;12616;52.470;13.436;2023-12-14T06:43:14;3.70;1.00
24436;DHT22;12616;52.470;13.436;2023-12-14T06:45:40;3.70;1.00
24436;DHT22;12616;52.470;13.436;2023-12-14T06:48:07;3.70;1.00
24436;DHT22;12616;52.470;13.436;2023-12-14T06:50:34;3.70;1.00
24436;DHT22;12616;52.470;13.436;2023-12-14T06:53:01;3.70;1.00
24436;DHT22;12616;52.470;13.436;2023-12-14T06:55:27;3.70;1.00
24436;DHT22;12616;52.470;13.436;2023-12-14T06:57:56;3.70;1.00
24436;DHT22;12616;52.470;13.436;2023-12-14T07:00:22;3.80;1.00
24436;DHT22;12616;52.470;13.436;2023-12-14T07:02:49;4.00;1.00
24436;DHT22;12616;52.470;13.436;2023-12-14T07:05:16;3.70;1.00
24436;DHT22;12616;52.470;13.436;2023-12-14T07:07:43;3.80;1.00
24436;DHT22;12616;52.470;13.436;2023-12-14T07:10:10;3.70;1.00
24436;DHT22;12616;52.470;13.436;2023-12-14T07:12:36;6.40;1.00
24436;DHT22;12616;52.470;13.436;2023-12-14T07:15:07;3.80;1.00
24436;DHT22;12616;52.470;13.436;2023-12-14T07:17:34;3.80;1.00
24436;DHT22;12616;52.470;13.436;2023-12-14T07:22:28;4.10;1.00
24436;DHT22;12616;52.470;13.436;2023-12-14T07:24:55;3.90;1.00
24436;DHT22;12616;52.470;13.436;2023-12-14T07:27:22;3.90;1.00
24436;DHT22;12616;52.470;13.436;2023-12-14T07:29:49;3.90;1.00
24436;DHT22;12616;52.470;13.436;2023-12-14T07:32:17;3.90;1.00
24436;DHT22;12616;52.470;13.436;2023-12-14T07:34:44;3.80;1.00
24436;DHT22;12616;52.470;13.436;2023-12-14T07:37:10;3.90;1.00
24436;DHT22;12616;52.470;13.436;2023-12-14T07:39:37;3.80;1.00
24436;DHT22;12616;52.470;13.436;2023-12-14T07:42:04;3.90;1.00
24436;DHT22;12616;52.470;13.436;2023-12-14T07:44:32;4.00;1.00
24436;DHT22;12616;52.470;13.436;2023-12-14T07:47:00;4.00;1.00
24436;DHT22;12616;52.470;13.436;2023-12-14T07:49:28;4.00;1.00
24436;DHT22;12616;52.470;13.436;2023-12-14T07:51:55;4.40;1.00
24436;DHT22;12616;52.470;13.436;2023-12-14T07:54:22;4.00;1.00
24436;DHT22;12616;52.470;13.436;2023-12-14T07:56:51;3.90;1.00
24436;DHT22;12616;52.470;13.436;2023-12-14T07:59:18;3.90;1.00
24436;DHT22;12616;52.470;13.436;2023-12-14T08:01:44;3.90;1.00
24436;DHT22;12616;52.470;13.436;2023-12-14T08:04:11;3.90;1.00
24436;DHT22;12616;52.470;13.436;2023-12-14T08:06:39;3.80;1.00
24436;DHT22;12616;52.470;13.436;2023-12-14T08:09:06;3.80;1.00
24436;DHT22;12616;52.470;13.436;2023-12-14T08:11:34;3.90;1.00
24436;DHT22;12616;52.470;13.436;2023-12-14T08:14:00;3.90;99.90
24436;DHT22;12616;52.470;13.436;2023-12-14T08:16:28;3.90;99.90
24436;DHT22;12616;52.470;13.436;2023-12-14T08:18:55;4.00;99.90
24436;DHT22;12616;52.470;13.436;2023-12-14T08:21:22;3.90;99.90
24436;DHT22;12616;52.470;13.436;2023-12-14T08:23:50;3.90;99.90
24436;DHT22;12616;52.470;13.436;2023-12-14T08:26:17;3.90;99.90
24436;DHT22;12616;52.470;13.436;2023-12-14T08:28:43;3.90;99.90
24436;DHT22;12616;52.470;13.436;2023-12-14T08:31:10;4.20;1.00
24436;DHT22;12616;52.470;13.436;2023-12-14T08:33:37;3.90;1.00
24436;DHT22;12616;52.470;13.436;2023-12-14T08:36:05;3.90;99.90
24436;DHT22;12616;52.470;13.436;2023-12-14T08:38:32;3.90;99.90
24436;DHT22;12616;52.470;13.436;2023-12-14T08:41:00;3.90;1.00
24436;DHT22;12616;52.470;13.436;2023-12-14T08:43:27;4.00;1.00
24436;DHT22;12616;52.470;13.436;2023-12-14T08:45:54;4.10;1.00
24436;DHT22;12616;52.470;13.436;2023-12-14T08:48:21;4.10;1.00
24436;DHT22;12616;52.470;13.436;2023-12-14T08:50:47;3.90;99.90
24436;DHT22;12616;52.470;13.436;2023-12-14T08:53:14;4.00;99.90
24436;DHT22;12616;52.470;13.436;2023-12-14T08:55:41;3.90;99.90
24436;DHT22;12616;52.470;13.436;2023-12-14T08:58:10;3.90;99.90
24436;DHT22;12616;52.470;13.436;2023-12-14T09:00:38;3.90;99.90
24436;DHT22;12616;52.470;13.436;2023-12-14T09:03:05;4.00;99.90
24436;DHT22;12616;52.470;13.436;2023-12-14T09:05:31;4.00;99.90
24436;DHT22;12616;52.470;13.436;2023-12-14T09:07:58;4.00;99.90
24436;DHT22;12616;52.470;13.436;2023-12-14T09:10:25;4.00;99.90
24436;DHT22;12616;52.470;13.436;2023-12-14T09:12:52;4.10;99.90
24436;DHT22;12616;52.470;13.436;2023-12-14T09:15:20;4.00;99.90
24436;DHT22;12616;52.470;13.436;2023-12-14T09:17:47;4.00;99.90
24436;DHT22;12616;52.470;13.436;2023-12-14T09:20:14;3.80;99.90
24436;DHT22;12616;52.470;13.436;2023-12-14T09:22:41;4.00;99.90
24436;DHT22;12616;52.470;13.436;2023-12-14T09:25:08;4.00;99.90
24436;DHT22;12616;52.470;13.436;2023-12-14T09:27:35;4.00;99.90
24436;DHT22;12616;52.470;13.436;2023-12-14T09:30:03;3.90;99.90
24436;DHT22;12616;52.470;13.436;2023-12-14T09:32:31;4.10;99.90
24436;DHT22;12616;52.470;13.436;2023-12-14T09:34:58;4.20;99.90
24436;DHT22;12616;52.470;13.436;2023-12-14T09:37:24;4.10;99.90
24436;DHT22;12616;52.470;13.436;2023-12-14T09:39:51;4.20;99.90
24436;DHT22;12616;52.470;13.436;2023-12-14T09:42:19;4.10;99.90
24436;DHT22;12616;52.470;13.436;2023-12-14T09:44:48;4.50;99.90
24436;DHT22;12616;52.470;13.436;2023-12-14T09:47:15;4.30;99.90
24436;DHT22;12616;52.470;13.436;2023-12-14T09:49:43;4.20;99.90
24436;DHT22;12616;52.470;13.436;2023-12-14T09:52:11;4.10;99.90
24436;DHT22;12616;52.470;13.436;2023-12-14T09:54:39;4.00;99.90
24436;DHT22;12616;52.470;13.436;2023-12-14T09:57:06;4.00;99.90
24436;DHT22;12616;52.470;13.436;2023-12-14T09:59:33;4.20;99.90
24436;DHT22;12616;52.470;13.436;2023-12-14T10:02:09;4.20;99.90
24436;DHT22;12616;52.470;13.436;2023-12-14T10:04:37;4.10;99.90
24436;DHT22;12616;52.470;13.436;2023-12-14T10:07:05;4.10;99.90
24436;DHT22;12616;52.470;13.436;2023-12-14T10:09:37;4.10;98.00
24436;DHT22;12616;52.470;13.436;2023-12-14T10:12:05;4.00;65.30
24436;DHT22;12616;52.470;13.436;2023-12-14T10:14:33;3.90;99.90
24436;DHT22;12616;52.470;13.436;2023-12-14T10:17:16;4.10;76.50
24436;DHT22;12616;52.470;13.436;2023-12-14T10:19:46;4.20;99.90
24436;DHT22;12616;52.470;13.436;2023-12-14T10:22:15;4.30;99.90
24436;DHT22;12616;52.470;13.436;2023-12-14T10:24:43;4.30;99.90
24436;DHT22;12616;52.470;13.436;2023-12-14T10:27:10;4.20;99.90
24436;DHT22;12616;52.470;13.436;2023-12-14T10:29:37;4.20;99.90
24436;DHT22;12616;52.470;13.436;2023-12-14T10:32:06;4.10;85.60
24436;DHT22;12616;52.470;13.436;2023-12-14T10:34:34;4.20;99.90
24436;DHT22;12616;52.470;13.436;2023-12-14T10:37:05;4.30;99.90
24436;DHT22;12616;52.470;13.436;2023-12-14T10:39:34;4.20;99.90
24436;DHT22;12616;52.470;13.436;2023-12-14T10:42:03;4.10;99.00
24436;DHT22;12616;52.470;13.436;2023-12-14T10:44:32;4.20;99.90
24436;DHT22;12616;52.470;13.436;2023-12-14T10:47:02;4.10;99.90
24436;DHT22;12616;52.470;13.436;2023-12-14T10:49:34;3.90;80.70
24436;DHT22;12616;52.470;13.436;2023-12-14T10:52:01;4.10;25.80
24436;DHT22;12616;52.470;13.436;2023-12-14T10:54:31;4.20;41.20
24436;DHT22;12616;52.470;13.436;2023-12-14T10:57:00;4.40;39.20
24436;DHT22;12616;52.470;13.436;2023-12-14T10:59:30;4.20;1.00
24436;DHT22;12616;52.470;13.436;2023-12-14T11:01:57;4.20;1.00
24436;DHT22;12616;52.470;13.436;2023-12-14T11:04:26;4.10;1.00
24436;DHT22;12616;52.470;13.436;2023-12-14T11:06:53;4.20;68.80
24436;DHT22;12616;52.470;13.436;2023-12-14T11:09:23;4.30;1.00
24436;DHT22;12616;52.470;13.436;2023-12-14T11:11:56;4.20;1.00
24436;DHT22;12616;52.470;13.436;2023-12-14T11:14:26;4.20;1.00
24436;DHT22;12616;52.470;13.436;2023-12-14T11:16:54;4.10;1.00
24436;DHT22;12616;52.470;13.436;2023-12-14T11:19:26;4.10;1.00
24436;DHT22;12616;52.470;13.436;2023-12-14T11:22:10;4.10;1.00
24436;DHT22;12616;52.470;13.436;2023-12-14T11:24:41;4.10;1.00
24436;DHT22;12616;52.470;13.436;2023-12-14T11:27:09;4.20;1.00
24436;DHT22;12616;52.470;13.436;2023-12-14T11:29:38;4.20;1.00
24436;DHT22;12616;52.470;13.436;2023-12-14T11:32:07;4.20;1.00
24436;DHT22;12616;52.470;13.436;2023-12-14T11:34:34;4.20;1.00
24436;DHT22;12616;52.470;13.436;2023-12-14T11:37:02;4.20;1.00
24436;DHT22;12616;52.470;13.436;2023-12-14T11:39:31;4.30;1.00
24436;DHT22;12616;52.470;13.436;2023-12-14T11:42:02;4.20;1.00
24436;DHT22;12616;52.470;13.436;2023-12-14T11:44:29;4.30;1.00
24436;DHT22;12616;52.470;13.436;2023-12-14T11:46:58;4.20;1.00
24436;DHT22;12616;52.470;13.436;2023-12-14T11:49:25;4.20;1.00
24436;DHT22;12616;52.470;13.436;2023-12-14T11:51:53;4.20;1.00
24436;DHT22;12616;52.470;13.436;2023-12-14T11:54:21;4.20;1.00
24436;DHT22;12616;52.470;13.436;2023-12-14T11:56:49;4.20;1.00
24436;DHT22;12616;52.470;13.436;2023-12-14T11:59:16;4.20;1.00
24436;DHT22;12616;52.470;13.436;2023-12-14T12:01:54;4.20;1.00
24436;DHT22;12616;52.470;13.436;2023-12-14T12:04:23;4.20;1.00
24436;DHT22;12616;52.470;13.436;2023-12-14T12:06:58;4.30;1.00
24436;DHT22;12616;52.470;13.436;2023-12-14T12:09:33;4.20;1.00
24436;DHT22;12616;52.470;13.436;2023-12-14T12:12:00;4.20;1.00
24436;DHT22;12616;52.470;13.436;2023-12-14T12:14:27;4.30;1.00
24436;DHT22;12616;52.470;13.436;2023-12-14T12:16:54;4.30;1.00
24436;DHT22;12616;52.470;13.436;2023-12-14T12:19:22;4.20;1.00
24436;DHT22;12616;52.470;13.436;2023-12-14T12:21:49;4.30;1.00
24436;DHT22;12616;52.470;13.436;2023-12-14T12:24:16;4.30;1.00
24436;DHT22;12616;52.470;13.436;2023-12-14T12:26:43;4.30;1.00
24436;DHT22;12616;52.470;13.436;2023-12-14T12:29:10;4.30;1.00
24436;DHT22;12616;52.470;13.436;2023-12-14T12:31:37;4.30;1.00
24436;DHT22;12616;52.470;13.436;2023-12-14T12:34:05;4.30;1.00
24436;DHT22;12616;52.470;13.436;2023-12-14T12:36:33;4.30;1.00
24436;DHT22;12616;52.470;13.436;2023-12-14T12:39:00;4.40;1.00
24436;DHT22;12616;52.470;13.436;2023-12-14T12:41:27;4.30;1.00
24436;DHT22;12616;52.470;13.436;2023-12-14T12:43:54;4.30;1.00
24436;DHT22;12616;52.470;13.436;2023-12-14T12:46:21;4.40;1.00
24436;DHT22;12616;52.470;13.436;2023-12-14T12:48:48;4.40;1.00
24436;DHT22;12616;52.470;13.436;2023-12-14T12:51:17;4.40;1.00
24436;DHT22;12616;52.470;13.436;2023-12-14T12:53:45;4.40;1.00
24436;DHT22;12616;52.470;13.436;2023-12-14T12:56:12;4.30;1.00
24436;DHT22;12616;52.470;13.436;2023-12-14T12:58:39;4.70;1.00
24436;DHT22;12616;52.470;13.436;2023-12-14T13:01:06;4.40;1.00
24436;DHT22;12616;52.470;13.436;2023-12-14T13:03:33;4.60;1.00
24436;DHT22;12616;52.470;13.436;2023-12-14T13:06:00;4.60;1.00
24436;DHT22;12616;52.470;13.436;2023-12-14T13:08:27;4.60;1.00
24436;DHT22;12616;52.470;13.436;2023-12-14T13:10:55;4.60;1.00
24436;DHT22;12616;52.470;13.436;2023-12-14T13:13:22;4.70;1.00
24436;DHT22;12616;52.470;13.436;2023-12-14T13:15:48;4.60;1.00
24436;DHT22;12616;52.470;13.436;2023-12-14T13:18:16;4.50;1.00
24436;DHT22;12616;52.470;13.436;2023-12-14T13:20:42;4.60;1.00
24436;DHT22;12616;52.470;13.436;2023-12-14T13:23:09;4.60;1.00
24436;DHT22;12616;52.470;13.436;2023-12-14T13:25:36;4.60;1.00
24436;DHT22;12616;52.470;13.436;2023-12-14T13:28:05;4.60;1.00
24436;DHT22;12616;52.470;13.436;2023-12-14T13:30:31;4.80;1.00
24436;DHT22;12616;52.470;13.436;2023-12-14T13:32:58;4.60;1.00
24436;DHT22;12616;52.470;13.436;2023-12-14T13:35:25;4.50;1.00
24436;DHT22;12616;52.470;13.436;2023-12-14T13:37:53;4.40;1.00
24436;DHT22;12616;52.470;13.436;2023-12-14T13:40:20;4.30;1.00
24436;DHT22;12616;52.470;13.436;2023-12-14T13:42:47;4.30;1.00
24436;DHT22;12616;52.470;13.436;2023-12-14T13:45:16;4.50;1.00
24436;DHT22;12616;52.470;13.436;2023-12-14T13:47:43;4.50;1.00
24436;DHT22;12616;52.470;13.436;2023-12-14T13:50:10;4.60;1.00
24436;DHT22;12616;52.470;13.436;2023-12-14T13:52:37;4.90;1.00
24436;DHT22;12616;52.470;13.436;2023-12-14T13:55:04;4.30;1.00
24436;DHT22;12616;52.470;13.436;2023-12-14T13:57:31;4.40;1.00
24436;DHT22;12616;52.470;13.436;2023-12-14T13:59:58;4.50;1.00
24436;DHT22;12616;52.470;13.436;2023-12-14T14:02:26;4.40;1.00
24436;DHT22;12616;52.470;13.436;2023-12-14T14:04:54;4.40;1.00
24436;DHT22;12616;52.470;13.436;2023-12-14T14:07:21;4.40;1.00
24436;DHT22;12616;52.470;13.436;2023-12-14T14:09:48;4.30;1.00
24436;DHT22;12616;52.470;13.436;2023-12-14T14:12:15;4.30;1.00
24436;DHT22;12616;52.470;13.436;2023-12-14T14:14:45;4.30;1.00
24436;DHT22;12616;52.470;13.436;2023-12-14T14:17:12;4.40;1.00
24436;DHT22;12616;52.470;13.436;2023-12-14T14:19:41;4.40;1.00
24436;DHT22;12616;52.470;13.436;2023-12-14T14:22:07;4.30;1.00
24436;DHT22;12616;52.470;13.436;2023-12-14T14:24:34;4.40;1.00
24436;DHT22;12616;52.470;13.436;2023-12-14T14:27:02;4.30;1.00
24436;DHT22;12616;52.470;13.436;2023-12-14T14:29:29;4.30;1.00
24436;DHT22;12616;52.470;13.436;2023-12-14T14:31:56;4.30;1.00
24436;DHT22;12616;52.470;13.436;2023-12-14T14:34:23;4.30;1.00
24436;DHT22;12616;52.470;13.436;2023-12-14T14:36:52;4.20;1.00
24436;DHT22;12616;52.470;13.436;2023-12-14T14:39:24;4.20;1.00
24436;DHT22;12616;52.470;13.436;2023-12-14T14:44:25;4.10;1.00
24436;DHT22;12616;52.470;13.436;2023-12-14T14:47:04;4.10;1.00
24436;DHT22;12616;52.470;13.436;2023-12-14T14:49:42;5.40;1.00
24436;DHT22;12616;52.470;13.436;2023-12-14T14:52:15;4.20;1.00
24436;DHT22;12616;52.470;13.436;2023-12-14T14:57:30;4.10;1.00
24436;DHT22;12616;52.470;13.436;2023-12-14T14:59:59;4.30;1.00
24436;DHT22;12616;52.470;13.436;2023-12-14T15:02:42;4.30;1.00
24436;DHT22;12616;52.470;13.436;2023-12-14T15:05:33;4.10;1.00
24436;DHT22;12616;52.470;13.436;2023-12-14T15:11:03;4.10;1.00
24436;DHT22;12616;52.470;13.436;2023-12-14T15:13:35;4.10;1.00
24436;DHT22;12616;52.470;13.436;2023-12-14T15:16:04;3.80;1.00
24436;DHT22;12616;52.470;13.436;2023-12-14T15:23:33;4.00;1.00
24436;DHT22;12616;52.470;13.436;2023-12-14T15:34:26;4.30;1.00
24436;DHT22;12616;52.470;13.436;2023-12-14T15:37:13;4.20;1.00
24436;DHT22;12616;52.470;13.436;2023-12-14T15:39:42;4.50;1.00
24436;DHT22;12616;52.470;13.436;2023-12-14T15:49:39;4.20;1.00
24436;DHT22;12616;52.470;13.436;2023-12-14T15:54:38;4.20;99.90
24436;DHT22;12616;52.470;13.436;2023-12-14T15:57:07;4.20;99.90
24436;DHT22;12616;52.470;13.436;2023-12-14T15:59:36;7.10;99.90
24436;DHT22;12616;52.470;13.436;2023-12-14T16:02:13;3.20;1.00
24436;DHT22;12616;52.470;13.436;2023-12-14T16:04:41;4.30;1.00
24436;DHT22;12616;52.470;13.436;2023-12-14T16:07:10;4.20;1.00
24436;DHT22;12616;52.470;13.436;2023-12-14T16:12:04;4.20;99.90
24436;DHT22;12616;52.470;13.436;2023-12-14T16:14:35;4.20;99.90
24436;DHT22;12616;52.470;13.436;2023-12-14T16:17:02;4.80;99.90
24436;DHT22;12616;52.470;13.436;2023-12-14T16:19:29;4.20;99.90
24436;DHT22;12616;52.470;13.436;2023-12-14T16:21:56;4.40;99.90